createdAt,value
2022-09-16T00:00:56.381Z,16.00
2022-09-16T00:03:23.578Z,16.00
2022-09-16T00:05:53.447Z,15.90
2022-09-16T00:08:22.148Z,15.90
2022-09-16T00:10:49.770Z,15.90
2022-09-16T00:13:17.493Z,15.90
2022-09-16T00:15:46.899Z,15.80
2022-09-16T00:18:14.756Z,15.80
2022-09-16T00:20:51.688Z,15.70
2022-09-16T00:23:19.930Z,15.60
2022-09-16T00:25:55.592Z,15.50
2022-09-16T00:28:23.912Z,15.40
2022-09-16T00:30:51.458Z,15.30
2022-09-16T00:33:20.173Z,15.20
2022-09-16T00:35:47.839Z,15.20
2022-09-16T00:38:15.313Z,15.00
2022-09-16T00:40:50.384Z,14.90
2022-09-16T00:43:19.853Z,14.90
2022-09-16T00:45:56.372Z,14.80
2022-09-16T00:48:26.451Z,14.70
2022-09-16T00:51:06.316Z,14.60
2022-09-16T00:53:43.212Z,14.50
2022-09-16T00:56:13.290Z,14.50
2022-09-16T00:58:47.932Z,14.40
2022-09-16T01:01:15.409Z,14.30
2022-09-16T01:03:52.215Z,14.30
2022-09-16T01:06:20.971Z,14.20
2022-09-16T01:08:50.732Z,14.20
2022-09-16T01:11:18.179Z,14.20
2022-09-16T01:13:47.682Z,14.00
2022-09-16T01:16:26.550Z,14.00
2022-09-16T01:19:19.252Z,13.90
2022-09-16T01:22:15.263Z,13.90
2022-09-16T01:25:19.194Z,13.90
2022-09-16T01:28:15.771Z,13.80
2022-09-16T01:31:02.811Z,13.70
2022-09-16T01:34:03.987Z,13.60
2022-09-16T01:37:18.064Z,13.60
2022-09-16T01:40:02.333Z,13.50
2022-09-16T01:42:38.762Z,13.40
2022-09-16T01:45:18.982Z,13.40
2022-09-16T01:47:46.068Z,13.30
2022-09-16T01:50:30.113Z,13.30
2022-09-16T01:53:20.854Z,13.20
2022-09-16T01:55:56.108Z,13.20
2022-09-16T01:58:26.288Z,13.20
2022-09-16T02:01:02.160Z,13.20
2022-09-16T02:03:33.805Z,13.20
2022-09-16T02:06:09.398Z,13.10
2022-09-16T02:08:59.401Z,13.10
2022-09-16T02:11:26.985Z,13.10
2022-09-16T02:14:07.041Z,13.10
2022-09-16T02:16:57.362Z,13.00
2022-09-16T02:19:39.192Z,13.00
2022-09-16T02:22:12.933Z,13.00
2022-09-16T02:24:43.085Z,12.90
2022-09-16T02:27:16.820Z,13.00
2022-09-16T02:30:12.488Z,12.90
2022-09-16T02:32:46.812Z,12.90
2022-09-16T02:35:21.207Z,12.90
2022-09-16T02:38:14.552Z,13.00
2022-09-16T02:40:49.272Z,13.00
2022-09-16T02:43:17.379Z,13.00
2022-09-16T02:46:16.366Z,13.00
2022-09-16T02:48:55.536Z,13.00
2022-09-16T02:51:47.269Z,12.90
2022-09-16T02:54:40.416Z,12.90
2022-09-16T02:57:08.114Z,12.90
2022-09-16T02:59:35.523Z,12.90
2022-09-16T03:02:02.705Z,12.90
2022-09-16T03:04:30.352Z,12.90
2022-09-16T03:06:58.129Z,12.90
2022-09-16T03:09:25.327Z,12.90
2022-09-16T03:12:20.805Z,12.90
2022-09-16T03:14:51.040Z,12.90
2022-09-16T03:17:36.527Z,12.90
2022-09-16T03:20:45.453Z,12.90
2022-09-16T03:23:53.683Z,12.90
2022-09-16T03:26:48.998Z,12.90
2022-09-16T03:29:34.000Z,12.80
2022-09-16T03:32:30.197Z,12.80
2022-09-16T03:35:08.682Z,12.80
2022-09-16T03:37:38.521Z,12.80
2022-09-16T03:40:16.035Z,12.80
2022-09-16T03:42:45.145Z,12.80
2022-09-16T03:45:23.522Z,12.70
2022-09-16T03:47:53.023Z,12.80
2022-09-16T03:50:21.182Z,12.80
2022-09-16T03:52:48.094Z,12.80
2022-09-16T03:55:16.972Z,12.80
2022-09-16T03:57:44.305Z,12.80
2022-09-16T04:00:12.255Z,12.90
2022-09-16T04:02:39.617Z,12.80
2022-09-16T04:05:08.264Z,12.90
2022-09-16T04:07:35.783Z,12.90
2022-09-16T04:10:04.285Z,13.00
2022-09-16T04:12:31.952Z,13.10
2022-09-16T04:15:00.775Z,13.20
2022-09-16T04:17:33.080Z,13.20
2022-09-16T04:20:00.785Z,13.20
2022-09-16T04:22:31.758Z,13.40
2022-09-16T04:24:59.041Z,13.40
2022-09-16T04:27:26.665Z,13.40
2022-09-16T04:29:53.689Z,13.40
2022-09-16T04:32:21.548Z,13.50
2022-09-16T04:34:48.577Z,13.60
2022-09-16T04:37:16.141Z,13.60
2022-09-16T04:39:43.108Z,13.60
2022-09-16T04:42:12.401Z,13.70
2022-09-16T04:44:39.904Z,13.70
2022-09-16T04:47:07.193Z,13.70
2022-09-16T04:49:34.277Z,13.80
2022-09-16T04:52:02.557Z,13.80
2022-09-16T04:54:29.548Z,13.80
2022-09-16T04:56:57.834Z,13.80
2022-09-16T04:59:25.211Z,13.90
2022-09-16T05:01:52.404Z,13.90
2022-09-16T05:04:19.688Z,13.90
2022-09-16T05:06:46.860Z,14.00
2022-09-16T05:09:13.804Z,14.00
2022-09-16T05:11:41.707Z,14.10
2022-09-16T05:14:14.096Z,14.10
2022-09-16T05:16:41.731Z,14.10
2022-09-16T05:19:11.102Z,14.10
2022-09-16T05:21:39.423Z,14.10
2022-09-16T05:24:09.665Z,14.10
2022-09-16T05:26:41.894Z,14.10
2022-09-16T05:29:16.758Z,14.00
2022-09-16T05:31:47.691Z,14.00
2022-09-16T05:34:18.988Z,14.00
2022-09-16T05:36:48.217Z,14.00
2022-09-16T05:39:24.632Z,14.00
2022-09-16T05:42:00.361Z,14.00
2022-09-16T05:44:29.068Z,14.10
2022-09-16T05:46:56.949Z,14.10
2022-09-16T05:49:24.220Z,14.10
2022-09-16T05:51:52.003Z,14.20
2022-09-16T05:54:19.867Z,14.30
2022-09-16T05:56:47.891Z,14.30
2022-09-16T05:59:16.621Z,14.40
2022-09-16T06:01:44.576Z,14.50
2022-09-16T06:04:15.000Z,14.60
2022-09-16T06:06:44.778Z,14.70
2022-09-16T06:09:22.568Z,14.80
2022-09-16T06:11:54.470Z,14.90
2022-09-16T06:14:25.112Z,14.90
2022-09-16T06:16:52.023Z,15.10
2022-09-16T06:19:20.388Z,15.20
2022-09-16T06:21:48.087Z,15.30
2022-09-16T06:24:18.000Z,15.40
2022-09-16T06:26:47.089Z,15.50
2022-09-16T06:29:15.923Z,15.50
2022-09-16T06:31:43.785Z,15.60
2022-09-16T06:34:21.423Z,15.70
2022-09-16T06:36:48.546Z,15.80
2022-09-16T06:39:17.189Z,15.90
2022-09-16T06:41:44.500Z,16.00
2022-09-16T06:44:11.414Z,16.10
2022-09-16T06:46:38.825Z,16.20
2022-09-16T06:49:06.759Z,16.20
2022-09-16T06:51:35.040Z,16.40
2022-09-16T06:54:07.290Z,16.40
2022-09-16T06:56:37.655Z,16.40
2022-09-16T06:59:05.314Z,16.50
2022-09-16T07:01:33.320Z,16.60
2022-09-16T07:04:06.688Z,16.70
2022-09-16T07:09:22.233Z,16.80
2022-09-16T07:11:49.106Z,17.00
2022-09-16T07:14:16.258Z,17.00
2022-09-16T07:16:43.295Z,17.10
2022-09-16T07:19:11.284Z,17.20
2022-09-16T07:21:38.344Z,17.30
2022-09-16T07:24:05.829Z,17.30
2022-09-16T07:26:37.628Z,17.40
2022-09-16T07:29:08.085Z,17.40
2022-09-16T07:31:37.677Z,17.40
2022-09-16T07:34:08.217Z,17.50
2022-09-16T07:36:40.904Z,17.50
2022-09-16T07:39:08.971Z,17.50
2022-09-16T07:41:40.073Z,17.60
2022-09-16T07:44:10.160Z,17.60
2022-09-16T07:46:37.495Z,17.60
2022-09-16T07:49:07.499Z,17.70
2022-09-16T07:51:35.538Z,17.60
2022-09-16T07:54:06.857Z,17.60
2022-09-16T07:56:37.177Z,17.60
2022-09-16T07:59:07.711Z,17.50
2022-09-16T08:01:35.011Z,17.40
2022-09-16T08:04:03.001Z,17.40
2022-09-16T08:06:32.479Z,17.30
2022-09-16T08:09:10.028Z,17.20
2022-09-16T08:11:48.466Z,17.10
2022-09-16T08:14:15.573Z,17.00
2022-09-16T08:16:42.703Z,16.90
2022-09-16T08:19:09.897Z,16.80
2022-09-16T08:21:37.063Z,16.70
2022-09-16T08:24:04.146Z,16.60
2022-09-16T08:26:31.116Z,16.50
2022-09-16T08:29:08.531Z,16.50
2022-09-16T08:31:38.001Z,16.40
2022-09-16T08:34:06.163Z,16.40
2022-09-16T08:36:33.968Z,16.40
2022-09-16T08:39:01.983Z,16.40
2022-09-16T08:41:48.211Z,16.40
2022-09-16T08:44:42.332Z,16.60
2022-09-16T08:47:36.586Z,16.70
2022-09-16T08:50:12.938Z,16.90
2022-09-16T08:52:41.154Z,17.00
2022-09-16T08:55:31.692Z,17.20
2022-09-16T08:58:17.965Z,17.40
2022-09-16T09:00:49.738Z,17.60
2022-09-16T09:03:37.760Z,17.80
2022-09-16T09:06:54.168Z,18.00
2022-09-16T09:10:08.552Z,18.10
2022-09-16T09:12:47.212Z,18.20
2022-09-16T09:15:39.034Z,18.20
2022-09-16T09:18:20.442Z,18.20
2022-09-16T09:21:15.254Z,18.20
2022-09-16T09:24:13.003Z,18.20
2022-09-16T09:26:52.310Z,18.20
2022-09-16T09:29:48.746Z,18.20
2022-09-16T09:32:48.433Z,18.30
2022-09-16T09:35:28.069Z,18.30
2022-09-16T09:38:14.758Z,18.40
2022-09-16T09:40:59.209Z,18.40
2022-09-16T09:43:32.726Z,18.40
2022-09-16T09:46:07.307Z,18.40
2022-09-16T09:48:54.021Z,18.40
2022-09-16T09:51:49.356Z,18.40
2022-09-16T09:54:25.551Z,18.50
2022-09-16T09:57:22.729Z,18.70
2022-09-16T10:00:13.117Z,18.90
2022-09-16T10:02:48.922Z,19.10
2022-09-16T10:05:25.677Z,19.30
2022-09-16T10:07:57.804Z,19.50
2022-09-16T10:10:27.831Z,19.60
2022-09-16T10:12:54.825Z,19.80
2022-09-16T10:15:31.793Z,19.90
2022-09-16T10:18:02.094Z,20.00
2022-09-16T10:20:35.585Z,20.10
2022-09-16T10:23:26.346Z,20.10
2022-09-16T10:26:18.336Z,20.00
2022-09-16T10:29:19.504Z,20.00
2022-09-16T10:31:47.422Z,19.90
2022-09-16T10:34:34.399Z,19.90
2022-09-16T10:37:17.165Z,19.90
2022-09-16T10:39:51.689Z,19.90
2022-09-16T10:42:21.385Z,19.90
2022-09-16T10:44:51.503Z,19.80
2022-09-16T10:47:24.933Z,19.90
2022-09-16T10:49:56.705Z,19.90
2022-09-16T10:52:30.274Z,19.90
2022-09-16T10:54:57.891Z,20.00
2022-09-16T10:57:31.611Z,20.10
2022-09-16T11:00:19.712Z,20.20
2022-09-16T11:03:24.387Z,20.20
2022-09-16T11:06:13.953Z,20.30
2022-09-16T11:08:55.796Z,20.40
2022-09-16T11:11:37.879Z,20.40
2022-09-16T11:14:32.192Z,20.40
2022-09-16T11:17:50.029Z,20.50
2022-09-16T11:21:00.882Z,20.40
2022-09-16T11:23:57.604Z,20.40
2022-09-16T11:26:50.081Z,20.40
2022-09-16T11:29:45.869Z,20.40
2022-09-16T11:32:52.694Z,20.50
2022-09-16T11:36:04.642Z,20.50
2022-09-16T11:39:22.195Z,20.50
2022-09-16T11:42:22.595Z,20.40
2022-09-16T11:45:07.041Z,20.10
2022-09-16T11:47:50.742Z,19.90
2022-09-16T11:50:35.976Z,19.80
2022-09-16T11:53:28.296Z,19.60
2022-09-16T11:56:22.096Z,19.50
2022-09-16T11:59:10.590Z,19.40
2022-09-16T12:02:01.436Z,19.40
2022-09-16T12:05:36.768Z,19.50
2022-09-16T12:08:30.186Z,19.60
2022-09-16T12:11:37.721Z,19.80
2022-09-16T12:14:24.422Z,20.00
2022-09-16T12:17:06.862Z,20.10
2022-09-16T12:20:06.121Z,20.20
2022-09-16T12:22:50.553Z,20.20
2022-09-16T12:25:34.262Z,20.20
2022-09-16T12:28:10.979Z,20.30
2022-09-16T12:30:43.321Z,20.30
2022-09-16T12:33:28.694Z,20.30
2022-09-16T12:35:59.282Z,20.40
2022-09-16T12:38:26.694Z,20.40
2022-09-16T12:41:19.011Z,20.50
2022-09-16T12:44:30.478Z,20.50
2022-09-16T12:47:18.729Z,20.60
2022-09-16T12:50:09.940Z,20.60
2022-09-16T12:53:03.818Z,20.50
2022-09-16T12:55:39.837Z,20.50
2022-09-16T12:58:37.515Z,20.40
2022-09-16T13:01:21.513Z,20.30
2022-09-16T13:04:04.575Z,20.10
2022-09-16T13:06:37.343Z,20.10
2022-09-16T13:09:27.479Z,20.00
2022-09-16T13:12:35.417Z,19.90
2022-09-16T13:15:02.204Z,19.80
2022-09-16T13:17:39.847Z,19.70
2022-09-16T13:20:18.537Z,19.60
2022-09-16T13:22:51.675Z,19.50
2022-09-16T13:25:57.701Z,19.50
2022-09-16T13:28:35.222Z,19.40
2022-09-16T13:31:15.386Z,19.40
2022-09-16T13:33:48.703Z,19.40
2022-09-16T13:36:22.335Z,19.40
2022-09-16T13:38:55.844Z,19.50
2022-09-16T13:41:36.535Z,19.50
2022-09-16T13:44:39.274Z,19.60
2022-09-16T13:47:09.374Z,19.70
2022-09-16T13:50:05.211Z,19.70
2022-09-16T13:52:35.601Z,19.80
2022-09-16T13:55:11.768Z,19.90
2022-09-16T13:58:28.441Z,19.80
2022-09-16T14:01:09.167Z,19.80
2022-09-16T14:03:47.544Z,19.80
2022-09-16T14:06:46.307Z,19.70
2022-09-16T14:09:32.026Z,19.60
2022-09-16T14:13:00.408Z,19.60
2022-09-16T14:15:30.375Z,19.60
2022-09-16T14:18:01.880Z,19.60
2022-09-16T14:20:29.268Z,19.50
2022-09-16T14:23:17.927Z,19.60
2022-09-16T14:25:46.580Z,19.50
2022-09-16T14:28:24.774Z,19.50
2022-09-16T14:31:02.140Z,19.50
2022-09-16T14:33:56.409Z,19.40
2022-09-16T14:36:31.943Z,19.40
2022-09-16T14:39:02.570Z,19.30
2022-09-16T14:41:32.514Z,19.20
2022-09-16T14:44:08.920Z,19.10
2022-09-16T14:46:47.858Z,19.00
2022-09-16T14:49:17.237Z,19.00
2022-09-16T14:51:52.836Z,18.90
2022-09-16T14:54:22.814Z,18.80
2022-09-16T14:57:00.453Z,18.80
2022-09-16T14:59:39.914Z,18.70
2022-09-16T15:02:33.914Z,18.60
2022-09-16T15:05:36.136Z,18.50
2022-09-16T15:08:24.970Z,18.40
2022-09-16T15:10:57.515Z,18.40
2022-09-16T15:13:29.469Z,18.30
2022-09-16T15:16:04.272Z,18.30
2022-09-16T15:18:35.305Z,18.30
2022-09-16T15:21:16.983Z,18.30
2022-09-16T15:23:49.799Z,18.30
2022-09-16T15:26:24.725Z,18.20
2022-09-16T15:29:05.427Z,18.10
2022-09-16T15:31:40.942Z,18.00
2022-09-16T15:34:22.924Z,18.00
2022-09-16T15:36:58.884Z,17.90
2022-09-16T15:39:38.654Z,17.80
2022-09-16T15:42:20.525Z,17.70
2022-09-16T15:44:53.713Z,17.70
2022-09-16T15:47:23.905Z,17.60
2022-09-16T15:49:59.719Z,17.50
2022-09-16T15:52:28.478Z,17.40
2022-09-16T15:55:05.293Z,17.30
2022-09-16T15:57:43.922Z,17.20
2022-09-16T16:00:15.790Z,17.10
2022-09-16T16:02:57.738Z,17.10
2022-09-16T16:05:31.772Z,17.00
2022-09-16T16:08:05.000Z,16.90
2022-09-16T16:10:39.403Z,16.90
2022-09-16T16:13:06.463Z,16.80
2022-09-16T16:15:39.147Z,16.80
2022-09-16T16:18:09.514Z,16.80
2022-09-16T16:20:38.015Z,16.70
2022-09-16T16:23:05.056Z,16.70
2022-09-16T16:25:32.420Z,16.60
2022-09-16T16:27:59.711Z,16.60
2022-09-16T16:30:26.791Z,16.50
2022-09-16T16:32:53.985Z,16.50
2022-09-16T16:35:21.027Z,16.50
2022-09-16T16:37:48.067Z,16.50
2022-09-16T16:40:16.997Z,16.40
2022-09-16T16:42:44.703Z,16.40
2022-09-16T16:45:14.300Z,16.40
2022-09-16T16:47:42.736Z,16.40
2022-09-16T16:50:12.083Z,16.30
2022-09-16T16:52:40.064Z,16.30
2022-09-16T16:55:08.036Z,16.20
2022-09-16T16:57:35.056Z,16.20
2022-09-16T17:00:02.985Z,16.20
2022-09-16T17:02:30.080Z,16.10
2022-09-16T17:04:57.079Z,16.10
2022-09-16T17:07:26.709Z,16.10
2022-09-16T17:09:57.388Z,16.00
2022-09-16T17:12:25.477Z,15.90
2022-09-16T17:14:52.624Z,15.80
2022-09-16T17:17:19.770Z,15.70
2022-09-16T17:19:46.781Z,15.60
2022-09-16T17:22:13.734Z,15.60
2022-09-16T17:24:40.733Z,15.60
2022-09-16T17:27:07.961Z,15.50
2022-09-16T17:29:34.979Z,15.50
2022-09-16T17:32:03.263Z,15.50
2022-09-16T17:34:31.015Z,15.40
2022-09-16T17:36:58.306Z,15.40
2022-09-16T17:39:25.895Z,15.30
2022-09-16T17:41:54.497Z,15.30
2022-09-16T17:44:22.072Z,15.30
2022-09-16T17:46:49.190Z,15.20
2022-09-16T17:49:23.002Z,15.10
2022-09-16T17:51:54.028Z,15.10
2022-09-16T17:54:22.263Z,15.00
2022-09-16T17:56:49.441Z,14.90
2022-09-16T17:59:18.729Z,14.80
2022-09-16T18:01:48.217Z,14.70
2022-09-16T18:04:17.662Z,14.60
2022-09-16T18:06:46.941Z,14.50
2022-09-16T18:09:16.355Z,14.40
2022-09-16T18:11:44.187Z,14.30
2022-09-16T18:14:13.318Z,14.20
2022-09-16T18:16:42.217Z,14.10
2022-09-16T18:19:10.170Z,14.00
2022-09-16T18:21:38.275Z,13.90
2022-09-16T18:24:11.030Z,13.80
2022-09-16T18:26:39.317Z,13.70
2022-09-16T18:29:10.114Z,13.60
2022-09-16T18:31:44.623Z,13.60
2022-09-16T18:34:12.755Z,13.50
2022-09-16T18:36:40.329Z,13.40
2022-09-16T18:39:12.718Z,13.40
2022-09-16T18:41:41.632Z,13.30
2022-09-16T18:44:26.868Z,13.30
2022-09-16T18:46:54.123Z,13.20
2022-09-16T18:49:23.957Z,13.20
2022-09-16T18:51:53.263Z,13.10
2022-09-16T18:54:26.031Z,13.10
2022-09-16T18:56:58.947Z,13.00
2022-09-16T18:59:30.345Z,13.00
2022-09-16T19:02:01.050Z,13.00
2022-09-16T19:04:31.070Z,12.90
2022-09-16T19:07:07.228Z,12.90
2022-09-16T19:09:37.627Z,12.90
2022-09-16T19:12:06.015Z,12.80
2022-09-16T19:14:33.147Z,12.80
2022-09-16T19:17:00.587Z,12.80
2022-09-16T19:19:27.696Z,12.80
2022-09-16T19:21:55.499Z,12.70
2022-09-16T19:24:25.011Z,12.70
2022-09-16T19:26:54.494Z,12.70
2022-09-16T19:29:22.058Z,12.70
2022-09-16T19:31:52.057Z,12.70
2022-09-16T19:34:19.976Z,12.60
2022-09-16T19:36:47.266Z,12.60
2022-09-16T19:39:14.674Z,12.60
2022-09-16T19:41:42.893Z,12.60
2022-09-16T19:44:16.299Z,12.60
2022-09-16T19:46:44.969Z,12.60
2022-09-16T19:49:20.958Z,12.60
2022-09-16T19:51:49.691Z,12.60
2022-09-16T19:54:17.914Z,12.60
2022-09-16T19:56:50.436Z,12.50
2022-09-16T19:59:19.313Z,12.50
2022-09-16T20:01:47.712Z,12.50
2022-09-16T20:04:15.685Z,12.50
2022-09-16T20:06:43.050Z,12.40
2022-09-16T20:09:12.788Z,12.40
2022-09-16T20:11:46.424Z,12.40
2022-09-16T20:14:21.855Z,12.40
2022-09-16T20:16:51.332Z,12.30
2022-09-16T20:19:22.075Z,12.30
2022-09-16T20:21:49.537Z,12.20
2022-09-16T20:24:20.936Z,12.20
2022-09-16T20:26:51.217Z,12.20
2022-09-16T20:29:19.868Z,12.10
2022-09-16T20:31:53.091Z,12.10
2022-09-16T20:34:20.325Z,12.10
2022-09-16T20:36:47.766Z,12.10
2022-09-16T20:39:15.726Z,12.00
2022-09-16T20:41:45.594Z,12.00
2022-09-16T20:44:15.425Z,12.00
2022-09-16T20:46:43.097Z,11.90
2022-09-16T20:49:15.964Z,12.00
2022-09-16T20:51:43.728Z,11.90
2022-09-16T20:54:14.026Z,11.90
2022-09-16T20:56:45.019Z,11.90
2022-09-16T20:59:14.377Z,11.80
2022-09-16T21:01:42.049Z,11.80
2022-09-16T21:04:16.395Z,11.80
2022-09-16T21:06:43.768Z,11.80
2022-09-16T21:09:14.186Z,11.80
2022-09-16T21:11:44.373Z,11.80
2022-09-16T21:14:17.321Z,11.80
2022-09-16T21:16:46.390Z,11.80
2022-09-16T21:19:14.078Z,11.80
2022-09-16T21:21:48.802Z,11.90
2022-09-16T21:24:17.902Z,11.80
2022-09-16T21:26:46.275Z,11.80
2022-09-16T21:29:21.191Z,11.80
2022-09-16T21:31:48.947Z,11.80
2022-09-16T21:34:20.422Z,11.70
2022-09-16T21:36:49.642Z,11.70
2022-09-16T21:39:19.516Z,11.60
2022-09-16T21:41:48.785Z,11.60
2022-09-16T21:44:16.932Z,11.50
2022-09-16T21:46:46.358Z,11.50
2022-09-16T21:49:24.129Z,11.40
2022-09-16T21:51:55.318Z,11.40
2022-09-16T21:54:23.457Z,11.40
2022-09-16T21:56:52.166Z,11.30
2022-09-16T21:59:20.267Z,11.30
2022-09-16T22:01:50.187Z,11.20
2022-09-16T22:04:24.295Z,11.20
2022-09-16T22:06:54.891Z,11.20
2022-09-16T22:09:22.706Z,11.20
2022-09-16T22:11:50.344Z,11.20
2022-09-16T22:14:18.980Z,11.10
2022-09-16T22:16:46.385Z,11.10
2022-09-16T22:19:18.911Z,11.10
2022-09-16T22:21:49.828Z,11.10
2022-09-16T22:24:20.376Z,11.10
2022-09-16T22:26:49.891Z,11.10
2022-09-16T22:29:17.167Z,11.10
2022-09-16T22:31:44.413Z,11.10
2022-09-16T22:34:11.876Z,11.00
2022-09-16T22:36:39.406Z,11.00
2022-09-16T22:39:19.480Z,11.00
2022-09-16T22:41:47.350Z,11.00
2022-09-16T22:44:14.742Z,11.00
2022-09-16T22:46:46.981Z,11.00
2022-09-16T22:49:15.708Z,11.00
2022-09-16T22:51:43.133Z,11.00
2022-09-16T22:54:13.687Z,11.00
2022-09-16T22:56:41.193Z,11.00
2022-09-16T22:59:16.407Z,11.10
2022-09-16T23:01:43.730Z,11.20
2022-09-16T23:04:10.799Z,11.20
2022-09-16T23:06:39.528Z,11.20
2022-09-16T23:09:09.379Z,11.20
2022-09-16T23:11:37.044Z,11.30
2022-09-16T23:14:06.421Z,11.20
2022-09-16T23:16:36.762Z,11.30
2022-09-16T23:19:07.786Z,11.30
2022-09-16T23:21:35.627Z,11.30
2022-09-16T23:24:04.933Z,11.30
2022-09-16T23:26:35.204Z,11.30
2022-09-16T23:29:06.786Z,11.30
2022-09-16T23:31:40.212Z,11.30
2022-09-16T23:34:20.689Z,11.30
2022-09-16T23:36:49.089Z,11.30
2022-09-16T23:39:17.014Z,11.30
2022-09-16T23:41:45.098Z,11.20
2022-09-16T23:44:14.840Z,11.20
2022-09-16T23:46:42.087Z,11.20
2022-09-16T23:49:10.093Z,11.30
2022-09-16T23:51:37.735Z,11.30
2022-09-16T23:54:04.852Z,11.30
2022-09-16T23:56:32.057Z,11.20
2022-09-16T23:59:00.765Z,11.20
